createdAt,value
2022-10-22T00:00:11.595Z,95476.69
2022-10-22T00:02:16.032Z,95485.28
2022-10-22T00:04:18.045Z,95485.28
2022-10-22T00:06:19.782Z,95485.16
2022-10-22T00:08:21.547Z,95485.34
2022-10-22T00:10:23.440Z,95483.56
2022-10-22T00:12:25.228Z,95481.66
2022-10-22T00:14:26.805Z,95470.22
2022-10-22T00:16:28.666Z,95476.28
2022-10-22T00:18:30.284Z,95484.66
2022-10-22T00:20:31.897Z,95480.28
2022-10-22T00:22:33.604Z,95485.38
2022-10-22T00:24:36.187Z,95483.44
2022-10-22T00:26:39.437Z,95481.81
2022-10-22T00:28:41.060Z,95481.94
2022-10-22T00:30:42.638Z,95465.81
2022-10-22T00:32:44.257Z,95458.13
2022-10-22T00:34:46.098Z,95461.81
2022-10-22T00:36:49.457Z,95463.19
2022-10-22T00:38:51.092Z,95463.19
2022-10-22T00:40:52.844Z,95459.06
2022-10-22T00:42:54.748Z,95460.97
2022-10-22T00:45:11.312Z,95457.25
2022-10-22T00:47:13.588Z,95465.41
2022-10-22T00:49:15.380Z,95477.22
2022-10-22T00:51:17.039Z,95473.78
2022-10-22T00:53:29.415Z,95465.66
2022-10-22T00:55:31.341Z,95472.97
2022-10-22T00:57:34.726Z,95464.72
2022-10-22T00:59:37.187Z,95460.84
2022-10-22T01:01:38.811Z,95454.66
2022-10-22T01:03:40.802Z,95447.47
2022-10-22T01:06:03.868Z,95445.84
2022-10-22T01:08:06.879Z,95438.00
2022-10-22T01:10:33.028Z,95440.75
2022-10-22T01:12:46.833Z,95438.13
2022-10-22T01:15:07.487Z,95428.47
2022-10-22T01:17:42.188Z,95426.13
2022-10-22T01:19:55.798Z,95432.19
2022-10-22T01:22:03.913Z,95427.66
2022-10-22T01:24:11.866Z,95423.53
2022-10-22T01:26:30.084Z,95420.22
2022-10-22T01:28:53.385Z,95417.56
2022-10-22T01:30:56.620Z,95412.22
2022-10-22T01:33:07.000Z,95418.13
2022-10-22T01:35:11.442Z,95406.56
2022-10-22T01:37:14.444Z,95409.34
2022-10-22T01:39:16.631Z,95403.00
2022-10-22T01:41:18.610Z,95404.78
2022-10-22T01:43:20.467Z,95401.06
2022-10-22T01:45:22.106Z,95399.97
2022-10-22T01:47:45.424Z,95398.97
2022-10-22T01:50:10.401Z,95396.38
2022-10-22T01:52:46.475Z,95396.09
2022-10-22T01:54:48.129Z,95405.06
2022-10-22T01:56:52.809Z,95405.59
2022-10-22T01:59:32.937Z,95407.81
2022-10-22T02:01:40.438Z,95415.56
2022-10-22T02:03:54.287Z,95410.81
2022-10-22T02:06:01.343Z,95415.16
2022-10-22T02:08:10.250Z,95419.34
2022-10-22T02:10:12.296Z,95422.22
2022-10-22T02:12:14.273Z,95413.03
2022-10-22T02:14:16.717Z,95405.28
2022-10-22T02:16:22.975Z,95410.88
2022-10-22T02:18:28.048Z,95400.34
2022-10-22T02:20:32.069Z,95395.81
2022-10-22T02:22:34.433Z,95390.88
2022-10-22T02:24:36.237Z,95390.34
2022-10-22T02:27:06.887Z,95382.78
2022-10-22T02:29:14.585Z,95395.41
2022-10-22T02:31:20.414Z,95410.63
2022-10-22T02:33:23.593Z,95405.06
2022-10-22T02:35:26.733Z,95411.16
2022-10-22T02:37:28.821Z,95416.34
2022-10-22T02:39:31.535Z,95418.22
2022-10-22T02:41:33.312Z,95421.34
2022-10-22T02:43:52.367Z,95423.84
2022-10-22T02:45:54.017Z,95427.06
2022-10-22T02:47:55.681Z,95418.41
2022-10-22T02:49:57.309Z,95419.56
2022-10-22T02:51:59.839Z,95422.88
2022-10-22T02:54:01.895Z,95421.19
2022-10-22T02:56:03.502Z,95409.22
2022-10-22T02:58:05.147Z,95416.78
2022-10-22T03:00:09.262Z,95406.91
2022-10-22T03:02:10.833Z,95404.16
2022-10-22T03:04:12.519Z,95410.09
2022-10-22T03:06:14.241Z,95422.88
2022-10-22T03:08:15.897Z,95414.78
2022-10-22T03:10:17.746Z,95421.09
2022-10-22T03:12:19.361Z,95417.53
2022-10-22T03:14:21.133Z,95411.06
2022-10-22T03:16:22.813Z,95416.41
2022-10-22T03:18:24.734Z,95420.97
2022-10-22T03:20:26.524Z,95410.50
2022-10-22T03:22:29.595Z,95409.69
2022-10-22T03:24:53.209Z,95405.41
2022-10-22T03:26:54.865Z,95395.91
2022-10-22T03:28:56.516Z,95401.97
2022-10-22T03:30:58.135Z,95407.47
2022-10-22T03:32:59.715Z,95406.09
2022-10-22T03:35:01.382Z,95408.81
2022-10-22T03:37:03.227Z,95396.97
2022-10-22T03:39:05.322Z,95392.03
2022-10-22T03:41:07.347Z,95393.25
2022-10-22T03:43:09.106Z,95391.50
2022-10-22T03:45:29.514Z,95393.25
2022-10-22T03:47:31.391Z,95390.53
2022-10-22T03:49:33.243Z,95392.03
2022-10-22T03:51:35.928Z,95396.00
2022-10-22T03:53:37.643Z,95406.72
2022-10-22T03:55:41.007Z,95393.66
2022-10-22T03:57:42.827Z,95401.50
2022-10-22T03:59:45.904Z,95408.66
2022-10-22T04:01:47.551Z,95407.72
2022-10-22T04:03:49.147Z,95398.66
2022-10-22T04:05:50.778Z,95392.56
2022-10-22T04:07:52.433Z,95388.19
2022-10-22T04:09:54.112Z,95394.34
2022-10-22T04:11:55.877Z,95395.88
2022-10-22T04:13:57.490Z,95396.69
2022-10-22T04:16:10.556Z,95392.28
2022-10-22T04:18:12.219Z,95377.28
2022-10-22T04:20:13.849Z,95380.88
2022-10-22T04:22:15.596Z,95384.88
2022-10-22T04:24:17.450Z,95377.72
2022-10-22T04:26:20.082Z,95381.03
2022-10-22T04:28:21.654Z,95392.84
2022-10-22T04:30:23.328Z,95383.09
2022-10-22T04:32:26.465Z,95380.22
2022-10-22T04:34:29.251Z,95387.94
2022-10-22T04:36:30.842Z,95387.38
2022-10-22T04:38:32.502Z,95389.59
2022-10-22T04:40:34.164Z,95387.25
2022-10-22T04:42:35.746Z,95386.03
2022-10-22T04:44:37.355Z,95386.03
2022-10-22T04:46:38.975Z,95381.47
2022-10-22T04:48:42.068Z,95382.47
2022-10-22T04:50:43.660Z,95381.75
2022-10-22T04:52:45.234Z,95390.16
2022-10-22T04:54:47.165Z,95400.75
2022-10-22T04:56:48.778Z,95400.22
2022-10-22T04:58:58.082Z,95407.66
2022-10-22T05:00:59.714Z,95404.63
2022-10-22T05:03:01.380Z,95406.50
2022-10-22T05:05:03.253Z,95396.81
2022-10-22T05:07:04.915Z,95402.56
2022-10-22T05:09:13.551Z,95410.41
2022-10-22T05:11:18.523Z,95428.69
2022-10-22T05:13:20.137Z,95430.75
2022-10-22T05:15:21.784Z,95426.81
2022-10-22T05:17:23.369Z,95426.88
2022-10-22T05:19:31.050Z,95427.63
2022-10-22T05:21:33.311Z,95421.47
2022-10-22T05:23:34.925Z,95416.50
2022-10-22T05:25:39.482Z,95425.31
2022-10-22T05:27:41.463Z,95426.38
2022-10-22T05:29:43.240Z,95424.09
2022-10-22T05:31:44.846Z,95424.03
2022-10-22T05:33:46.938Z,95431.06
2022-10-22T05:35:49.801Z,95432.38
2022-10-22T05:37:51.411Z,95427.59
2022-10-22T05:40:01.840Z,95432.31
2022-10-22T05:42:14.286Z,95435.16
2022-10-22T05:44:16.188Z,95439.88
2022-10-22T05:46:22.534Z,95428.09
2022-10-22T05:48:24.629Z,95432.81
2022-10-22T05:50:26.236Z,95430.94
2022-10-22T05:52:27.905Z,95430.19
2022-10-22T05:54:29.527Z,95425.84
2022-10-22T05:56:34.970Z,95427.28
2022-10-22T05:58:36.886Z,95426.75
2022-10-22T06:00:38.605Z,95427.88
2022-10-22T06:02:40.386Z,95428.03
2022-10-22T06:04:42.314Z,95427.34
2022-10-22T06:06:45.904Z,95436.31
2022-10-22T06:08:49.202Z,95433.84
2022-10-22T06:10:50.876Z,95427.66
2022-10-22T06:12:52.721Z,95431.09
2022-10-22T06:14:54.418Z,95430.53
2022-10-22T06:16:56.139Z,95433.00
2022-10-22T06:18:59.388Z,95427.69
2022-10-22T06:21:09.175Z,95441.88
2022-10-22T06:23:10.826Z,95437.72
2022-10-22T06:25:14.425Z,95434.56
2022-10-22T06:27:16.023Z,95436.47
2022-10-22T06:29:17.643Z,95434.25
2022-10-22T06:31:19.317Z,95430.28
2022-10-22T06:33:20.915Z,95442.69
2022-10-22T06:35:22.554Z,95445.47
2022-10-22T06:37:24.232Z,95443.78
2022-10-22T06:39:25.838Z,95445.00
2022-10-22T06:41:29.612Z,95443.22
2022-10-22T06:43:31.767Z,95439.72
2022-10-22T06:45:33.342Z,95442.53
2022-10-22T06:47:34.893Z,95437.31
2022-10-22T06:49:36.634Z,95442.56
2022-10-22T06:51:38.223Z,95436.72
2022-10-22T06:53:40.299Z,95440.09
2022-10-22T06:55:42.006Z,95439.09
2022-10-22T06:57:43.892Z,95439.69
2022-10-22T06:59:46.434Z,95444.84
2022-10-22T07:01:48.716Z,95451.03
2022-10-22T07:03:51.463Z,95447.56
2022-10-22T07:05:53.082Z,95451.78
2022-10-22T07:07:54.662Z,95449.28
2022-10-22T07:09:56.644Z,95448.13
2022-10-22T07:11:58.213Z,95437.00
2022-10-22T07:14:00.212Z,95443.66
2022-10-22T07:16:02.207Z,95433.19
2022-10-22T07:18:04.855Z,95441.69
2022-10-22T07:20:07.030Z,95436.63
2022-10-22T07:22:08.740Z,95427.00
2022-10-22T07:24:10.687Z,95424.25
2022-10-22T07:26:14.911Z,95432.41
2022-10-22T07:28:16.585Z,95433.78
2022-10-22T07:30:18.582Z,95437.53
2022-10-22T07:32:23.732Z,95427.31
2022-10-22T07:34:25.599Z,95425.97
2022-10-22T07:36:27.393Z,95425.59
2022-10-22T07:38:29.422Z,95423.91
2022-10-22T07:40:31.102Z,95423.38
2022-10-22T07:42:32.932Z,95424.78
2022-10-22T07:44:34.610Z,95420.53
2022-10-22T07:46:36.153Z,95417.66
2022-10-22T07:48:38.149Z,95415.13
2022-10-22T07:50:39.904Z,95408.53
2022-10-22T07:52:41.951Z,95407.44
2022-10-22T07:54:43.682Z,95395.03
2022-10-22T07:56:45.293Z,95402.66
2022-10-22T07:58:47.029Z,95401.41
2022-10-22T08:00:49.800Z,95405.47
2022-10-22T08:02:51.420Z,95410.09
2022-10-22T08:04:53.090Z,95405.75
2022-10-22T08:06:54.730Z,95406.63
2022-10-22T08:08:56.668Z,95399.81
2022-10-22T08:11:00.508Z,95390.84
2022-10-22T08:13:01.993Z,95391.53
2022-10-22T08:15:04.645Z,95394.22
2022-10-22T08:17:06.368Z,95390.16
2022-10-22T08:19:07.987Z,95399.22
2022-10-22T08:21:09.971Z,95397.06
2022-10-22T08:23:11.632Z,95391.66
2022-10-22T08:25:13.217Z,95380.09
2022-10-22T08:27:14.880Z,95377.31
2022-10-22T08:29:16.506Z,95377.97
2022-10-22T08:31:18.168Z,95381.94
2022-10-22T08:33:19.897Z,95385.06
2022-10-22T08:35:22.614Z,95381.91
2022-10-22T08:37:24.350Z,95382.56
2022-10-22T08:39:26.391Z,95384.72
2022-10-22T08:41:28.132Z,95386.34
2022-10-22T08:43:58.661Z,95384.53
2022-10-22T08:46:14.621Z,95387.34
2022-10-22T08:48:36.039Z,95378.63
2022-10-22T08:50:57.313Z,95384.06
2022-10-22T08:52:59.396Z,95385.03
2022-10-22T08:55:03.683Z,95388.84
2022-10-22T08:57:20.347Z,95389.50
2022-10-22T08:59:34.378Z,95382.94
2022-10-22T09:01:39.609Z,95383.53
2022-10-22T09:03:50.450Z,95386.78
2022-10-22T09:06:21.259Z,95382.19
2022-10-22T09:08:23.400Z,95383.19
2022-10-22T09:10:29.901Z,95375.19
2022-10-22T09:12:31.513Z,95372.84
2022-10-22T09:14:33.213Z,95371.69
2022-10-22T09:16:56.610Z,95367.78
2022-10-22T09:19:12.181Z,95367.22
2022-10-22T09:21:17.119Z,95367.66
2022-10-22T09:23:36.316Z,95368.75
2022-10-22T09:25:38.855Z,95357.09
2022-10-22T09:27:40.837Z,95356.97
2022-10-22T09:29:44.174Z,95355.53
2022-10-22T09:31:46.105Z,95344.78
2022-10-22T09:33:50.616Z,95345.81
2022-10-22T09:35:59.385Z,95347.03
2022-10-22T09:38:08.550Z,95346.03
2022-10-22T09:40:15.162Z,95339.84
2022-10-22T09:42:19.258Z,95343.66
2022-10-22T09:44:21.301Z,95335.50
2022-10-22T09:46:26.344Z,95330.78
2022-10-22T09:48:34.414Z,95318.53
2022-10-22T09:50:42.775Z,95320.13
2022-10-22T09:52:44.832Z,95325.28
2022-10-22T09:54:46.732Z,95318.38
2022-10-22T09:57:04.158Z,95330.25
2022-10-22T09:59:06.907Z,95330.31
2022-10-22T10:01:08.604Z,95328.06
2022-10-22T10:03:18.298Z,95321.78
2022-10-22T10:05:24.888Z,95319.59
2022-10-22T10:07:31.028Z,95311.78
2022-10-22T10:09:35.132Z,95306.69
2022-10-22T10:11:43.961Z,95303.69
2022-10-22T10:14:16.645Z,95314.22
2022-10-22T10:16:36.319Z,95305.03
2022-10-22T10:18:54.061Z,95313.22
2022-10-22T10:21:40.893Z,95312.31
2022-10-22T10:24:31.457Z,95297.28
2022-10-22T10:26:36.977Z,95295.38
2022-10-22T10:29:00.214Z,95291.56
2022-10-22T10:31:15.480Z,95294.50
2022-10-22T10:33:32.240Z,95290.78
2022-10-22T10:35:55.182Z,95282.78
2022-10-22T10:38:02.792Z,95285.78
2022-10-22T10:40:24.631Z,95273.22
2022-10-22T10:42:36.721Z,95272.22
2022-10-22T10:45:00.469Z,95261.63
2022-10-22T10:47:24.504Z,95263.44
2022-10-22T10:49:27.844Z,95258.47
2022-10-22T10:51:41.502Z,95256.84
2022-10-22T10:54:00.049Z,95252.53
2022-10-22T10:56:12.135Z,95245.84
2022-10-22T10:58:21.832Z,95235.72
2022-10-22T11:00:24.048Z,95230.91
2022-10-22T11:03:13.115Z,95225.56
2022-10-22T11:05:28.214Z,95219.94
2022-10-22T11:07:39.393Z,95213.91
2022-10-22T11:10:05.642Z,95208.31
2022-10-22T11:12:15.114Z,95208.31
2022-10-22T11:14:24.270Z,95213.25
2022-10-22T11:16:37.629Z,95206.53
2022-10-22T11:18:43.557Z,95201.84
2022-10-22T11:21:10.245Z,95193.91
2022-10-22T11:23:19.854Z,95193.91
2022-10-22T11:25:25.754Z,95186.75
2022-10-22T11:27:33.834Z,95184.34
2022-10-22T11:29:39.404Z,95182.09
2022-10-22T11:31:41.704Z,95177.06
2022-10-22T11:33:48.940Z,95176.75
2022-10-22T11:35:51.030Z,95169.41
2022-10-22T11:37:55.004Z,95165.69
2022-10-22T11:40:07.968Z,95161.16
2022-10-22T11:42:24.396Z,95156.66
2022-10-22T11:44:26.226Z,95154.25
2022-10-22T11:46:58.829Z,95159.16
2022-10-22T11:49:15.643Z,95157.69
2022-10-22T11:51:36.586Z,95159.56
2022-10-22T11:53:39.131Z,95152.59
2022-10-22T11:55:48.496Z,95150.19
2022-10-22T11:57:50.221Z,95149.88
2022-10-22T12:00:01.771Z,95151.59
2022-10-22T12:02:03.445Z,95145.25
2022-10-22T12:04:16.770Z,95144.09
2022-10-22T12:06:21.153Z,95142.69
2022-10-22T12:08:25.489Z,95141.97
2022-10-22T12:10:37.198Z,95143.44
2022-10-22T12:12:40.201Z,95141.47
2022-10-22T12:14:59.994Z,95136.44
2022-10-22T12:17:10.344Z,95130.03
2022-10-22T12:19:22.970Z,95127.06
2022-10-22T12:21:25.141Z,95129.94
2022-10-22T12:23:32.352Z,95128.06
2022-10-22T12:25:35.801Z,95128.47
2022-10-22T12:27:39.654Z,95129.84
2022-10-22T12:29:41.473Z,95121.03
2022-10-22T12:31:45.093Z,95117.22
2022-10-22T12:33:46.681Z,95121.38
2022-10-22T12:35:51.565Z,95115.50
2022-10-22T12:37:56.632Z,95117.19
2022-10-22T12:39:58.289Z,95116.22
2022-10-22T12:41:59.932Z,95113.19
2022-10-22T12:44:02.704Z,95105.06
2022-10-22T12:46:04.366Z,95109.53
2022-10-22T12:48:11.377Z,95114.84
2022-10-22T12:50:19.104Z,95109.75
2022-10-22T12:52:22.545Z,95104.63
2022-10-22T12:54:29.245Z,95101.38
2022-10-22T12:56:32.822Z,95100.75
2022-10-22T12:58:39.232Z,95099.31
2022-10-22T13:00:41.435Z,95091.75
2022-10-22T13:02:45.449Z,95099.31
2022-10-22T13:05:25.989Z,95092.97
2022-10-22T13:07:38.645Z,95093.81
2022-10-22T13:09:42.444Z,95091.16
2022-10-22T13:11:58.315Z,95089.34
2022-10-22T13:14:34.192Z,95084.63
2022-10-22T13:18:43.816Z,95084.44
2022-10-22T13:21:01.855Z,95082.41
2022-10-22T13:23:05.856Z,95080.56
2022-10-22T13:25:13.136Z,95075.44
2022-10-22T13:27:14.799Z,95073.00
2022-10-22T13:29:18.029Z,95069.31
2022-10-22T13:31:23.430Z,95065.84
2022-10-22T13:33:33.662Z,95068.06
2022-10-22T13:35:37.398Z,95069.31
2022-10-22T13:37:39.144Z,95073.41
2022-10-22T13:39:41.223Z,95074.22
2022-10-22T13:41:42.871Z,95072.41
2022-10-22T13:43:44.497Z,95069.75
2022-10-22T13:45:47.954Z,95067.47
2022-10-22T13:47:52.452Z,95069.94
2022-10-22T13:49:58.384Z,95062.78
2022-10-22T13:52:01.187Z,95063.81
2022-10-22T13:54:04.088Z,95075.44
2022-10-22T13:56:05.748Z,95077.06
2022-10-22T13:58:11.771Z,95066.41
2022-10-22T14:00:18.812Z,95069.31
2022-10-22T14:02:22.393Z,95072.34
2022-10-22T14:04:24.018Z,95067.28
2022-10-22T14:06:31.406Z,95078.09
2022-10-22T14:08:33.199Z,95072.16
2022-10-22T14:10:34.879Z,95071.38
2022-10-22T14:12:36.437Z,95073.22
2022-10-22T14:14:38.364Z,95068.50
2022-10-22T14:16:40.013Z,95067.28
2022-10-22T14:18:41.737Z,95067.69
2022-10-22T14:20:43.544Z,95065.25
2022-10-22T14:22:46.921Z,95061.34
2022-10-22T14:24:49.722Z,95063.19
2022-10-22T14:26:51.488Z,95055.41
2022-10-22T14:29:09.943Z,95047.25
2022-10-22T14:31:12.567Z,95048.28
2022-10-22T14:33:34.438Z,95049.50
2022-10-22T14:35:35.963Z,95044.78
2022-10-22T14:37:37.601Z,95047.88
2022-10-22T14:39:39.852Z,95044.78
2022-10-22T14:41:41.764Z,95048.28
2022-10-22T14:43:43.391Z,95050.72
2022-10-22T14:45:45.055Z,95045.81
2022-10-22T14:47:47.377Z,95049.72
2022-10-22T14:49:48.977Z,95051.97
2022-10-22T14:51:50.614Z,95056.03
2022-10-22T14:53:52.250Z,95055.22
2022-10-22T14:55:57.655Z,95060.13
2022-10-22T14:57:59.467Z,95060.53
2022-10-22T15:00:01.053Z,95055.84
2022-10-22T15:02:02.663Z,95058.47
2022-10-22T15:04:04.639Z,95049.69
2022-10-22T15:06:06.529Z,95055.00
2022-10-22T15:08:08.157Z,95057.44
2022-10-22T15:10:10.700Z,95050.44
2022-10-22T15:12:12.301Z,95050.44
2022-10-22T15:14:15.560Z,95057.56
2022-10-22T15:16:18.354Z,95050.78
2022-10-22T15:18:20.070Z,95052.59
2022-10-22T15:20:21.642Z,95054.00
2022-10-22T15:22:23.348Z,95053.97
2022-10-22T15:24:25.196Z,95061.28
2022-10-22T15:26:27.886Z,95048.00
2022-10-22T15:28:29.591Z,95055.94
2022-10-22T15:30:31.281Z,95056.09
2022-10-22T15:32:34.100Z,95063.19
2022-10-22T15:34:36.554Z,95059.47
2022-10-22T15:36:38.150Z,95054.94
2022-10-22T15:38:39.908Z,95061.00
2022-10-22T15:40:41.573Z,95066.25
2022-10-22T15:42:43.369Z,95077.25
2022-10-22T15:44:45.388Z,95070.88
2022-10-22T15:46:47.082Z,95072.28
2022-10-22T15:48:49.029Z,95065.72
2022-10-22T15:50:50.650Z,95077.53
2022-10-22T15:52:52.336Z,95072.00
2022-10-22T15:54:53.975Z,95079.50
2022-10-22T15:56:56.419Z,95081.09
2022-10-22T15:59:05.431Z,95087.16
2022-10-22T16:01:09.087Z,95083.44
2022-10-22T16:03:10.607Z,95092.94
2022-10-22T16:05:12.235Z,95094.72
2022-10-22T16:07:13.902Z,95100.16
2022-10-22T16:09:18.253Z,95100.72
2022-10-22T16:11:19.956Z,95101.91
2022-10-22T16:13:23.993Z,95108.19
2022-10-22T16:15:25.705Z,95109.59
2022-10-22T16:17:27.289Z,95107.31
2022-10-22T16:19:29.638Z,95108.53
2022-10-22T16:21:31.295Z,95106.19
2022-10-22T16:23:34.009Z,95101.31
2022-10-22T16:25:41.837Z,95105.78
2022-10-22T16:27:43.503Z,95103.31
2022-10-22T16:29:45.335Z,95101.88
2022-10-22T16:31:46.978Z,95098.41
2022-10-22T16:33:50.359Z,95097.78
2022-10-22T16:35:52.128Z,95095.31
2022-10-22T16:37:53.874Z,95100.16
2022-10-22T16:39:55.505Z,95092.59
2022-10-22T16:41:57.355Z,95093.59
2022-10-22T16:44:00.906Z,95098.25
2022-10-22T16:46:02.603Z,95089.88
2022-10-22T16:48:04.473Z,95087.41
2022-10-22T16:50:07.762Z,95084.31
2022-10-22T16:52:09.477Z,95091.59
2022-10-22T16:54:12.570Z,95094.00
2022-10-22T16:56:16.178Z,95096.38
2022-10-22T16:58:17.808Z,95080.69
2022-10-22T17:00:20.404Z,95081.06
2022-10-22T17:02:21.970Z,95086.34
2022-10-22T17:04:23.811Z,95086.72
2022-10-22T17:06:25.999Z,95082.47
2022-10-22T17:08:27.614Z,95087.75
2022-10-22T17:10:29.348Z,95087.75
2022-10-22T17:12:35.369Z,95077.16
2022-10-22T17:14:37.172Z,95077.16
2022-10-22T17:16:38.962Z,95070.22
2022-10-22T17:18:41.762Z,95072.41
2022-10-22T17:20:43.791Z,95061.84
2022-10-22T17:22:45.921Z,95074.25
2022-10-22T17:24:47.520Z,95091.47
2022-10-22T17:26:49.133Z,95096.13
2022-10-22T17:28:51.126Z,95101.53
2022-10-22T17:31:05.617Z,95098.28
2022-10-22T17:33:08.297Z,95091.34
2022-10-22T17:35:10.010Z,95085.72
2022-10-22T17:37:11.690Z,95089.47
2022-10-22T17:39:16.767Z,95085.03
2022-10-22T17:41:20.808Z,95101.53
2022-10-22T17:43:22.419Z,95092.97
2022-10-22T17:45:24.522Z,95090.97
2022-10-22T17:47:26.315Z,95095.22
2022-10-22T17:49:27.929Z,95092.75
2022-10-22T17:51:31.176Z,95095.22
2022-10-22T17:53:32.872Z,95094.25
2022-10-22T17:55:34.953Z,95091.22
2022-10-22T17:57:36.474Z,95093.66
2022-10-22T17:59:38.076Z,95100.81
2022-10-22T18:01:45.247Z,95113.09
2022-10-22T18:03:47.247Z,95098.38
2022-10-22T18:05:49.246Z,95099.28
2022-10-22T18:07:54.664Z,95102.56
2022-10-22T18:09:56.426Z,95102.06
2022-10-22T18:11:58.087Z,95100.19
2022-10-22T18:13:59.772Z,95094.47
2022-10-22T18:16:01.428Z,95100.63
2022-10-22T18:18:04.025Z,95103.44
2022-10-22T18:20:06.141Z,95108.00
2022-10-22T18:22:08.123Z,95093.94
2022-10-22T18:24:10.172Z,95107.25
2022-10-22T18:26:12.321Z,95108.16
2022-10-22T18:28:16.564Z,95107.84
2022-10-22T18:30:18.193Z,95105.47
2022-10-22T18:32:19.746Z,95112.22
2022-10-22T18:34:23.804Z,95105.94
2022-10-22T18:36:27.014Z,95109.22
2022-10-22T18:38:28.691Z,95111.88
2022-10-22T18:40:30.502Z,95113.50
2022-10-22T18:42:33.714Z,95111.56
2022-10-22T18:44:37.193Z,95107.66
2022-10-22T18:46:39.681Z,95115.75
2022-10-22T18:48:41.423Z,95118.22
2022-10-22T18:50:43.669Z,95124.31
2022-10-22T18:52:45.315Z,95124.47
2022-10-22T18:54:46.898Z,95138.75
2022-10-22T18:56:48.692Z,95140.94
2022-10-22T19:00:56.797Z,95138.19
2022-10-22T19:02:58.648Z,95138.50
2022-10-22T19:05:00.228Z,95139.59
2022-10-22T19:07:02.068Z,95137.63
2022-10-22T19:09:04.566Z,95151.63
2022-10-22T19:11:14.699Z,95148.00
2022-10-22T19:13:18.140Z,95147.00
2022-10-22T19:15:20.039Z,95156.72
2022-10-22T19:17:21.909Z,95150.81
2022-10-22T19:19:24.399Z,95146.72
2022-10-22T19:21:26.298Z,95150.53
2022-10-22T19:23:30.318Z,95150.41
2022-10-22T19:25:31.967Z,95152.03
2022-10-22T19:27:33.666Z,95152.03
2022-10-22T19:29:35.395Z,95159.94
2022-10-22T19:31:37.491Z,95149.56
2022-10-22T19:33:39.399Z,95147.13
2022-10-22T19:35:41.085Z,95161.13
2022-10-22T19:37:47.512Z,95154.03
2022-10-22T19:39:50.427Z,95148.91
2022-10-22T19:41:52.087Z,95144.81
2022-10-22T19:43:54.836Z,95130.97
2022-10-22T19:45:56.440Z,95132.78
2022-10-22T19:47:58.157Z,95125.25
2022-10-22T19:49:59.739Z,95127.88
2022-10-22T19:52:01.337Z,95121.13
2022-10-22T19:54:05.888Z,95131.03
2022-10-22T19:56:09.770Z,95132.19
2022-10-22T19:58:12.466Z,95121.84
2022-10-22T20:00:14.374Z,95126.28
2022-10-22T20:02:17.692Z,95130.25
2022-10-22T20:04:19.673Z,95123.19
2022-10-22T20:06:22.012Z,95120.34
2022-10-22T20:08:23.626Z,95126.47
2022-10-22T20:10:25.214Z,95123.81
2022-10-22T20:12:26.899Z,95128.09
2022-10-22T20:14:28.564Z,95126.16
2022-10-22T20:16:30.295Z,95128.13
2022-10-22T20:18:34.128Z,95127.47
2022-10-22T20:20:37.641Z,95132.78
2022-10-22T20:22:39.589Z,95129.38
2022-10-22T20:24:41.342Z,95124.28
2022-10-22T20:26:45.746Z,95133.81
2022-10-22T20:28:47.326Z,95122.44
2022-10-22T20:30:48.991Z,95119.31
2022-10-22T20:32:50.623Z,95119.69
2022-10-22T20:34:52.248Z,95125.28
2022-10-22T20:37:12.349Z,95122.63
2022-10-22T20:39:15.339Z,95125.94
2022-10-22T20:41:25.987Z,95130.94
2022-10-22T20:43:27.594Z,95128.09
2022-10-22T20:45:29.508Z,95131.78
2022-10-22T20:47:44.341Z,95133.09
2022-10-22T20:49:52.939Z,95135.41
2022-10-22T20:51:54.513Z,95144.63
2022-10-22T20:53:56.505Z,95142.00
2022-10-22T20:55:59.155Z,95138.03
2022-10-22T20:58:00.797Z,95133.44
2022-10-22T21:00:02.501Z,95125.34
2022-10-22T21:02:04.430Z,95134.91
2022-10-22T21:04:06.297Z,95134.06
2022-10-22T21:06:08.106Z,95136.69
2022-10-22T21:08:12.033Z,95131.56
2022-10-22T21:10:13.607Z,95135.50
2022-10-22T21:12:15.314Z,95142.41
2022-10-22T21:14:20.145Z,95145.22
2022-10-22T21:16:21.750Z,95147.66
2022-10-22T21:18:23.444Z,95147.34
2022-10-22T21:20:25.104Z,95151.28
2022-10-22T21:22:26.760Z,95154.56
2022-10-22T21:24:28.481Z,95146.47
2022-10-22T21:26:30.145Z,95134.13
2022-10-22T21:28:36.083Z,95133.66
2022-10-22T21:30:45.066Z,95134.47
2022-10-22T21:32:46.691Z,95134.47
2022-10-22T21:34:48.304Z,95127.75
2022-10-22T21:36:50.086Z,95122.13
2022-10-22T21:38:52.412Z,95116.56
2022-10-22T21:40:53.991Z,95129.06
2022-10-22T21:42:55.625Z,95121.31
2022-10-22T21:44:57.320Z,95122.84
2022-10-22T21:46:58.915Z,95128.91
2022-10-22T21:49:02.778Z,95126.94
2022-10-22T21:51:13.303Z,95117.38
2022-10-22T21:53:14.934Z,95112.31
2022-10-22T21:55:16.511Z,95116.56
2022-10-22T21:57:18.112Z,95116.25
2022-10-22T21:59:19.778Z,95122.13
2022-10-22T22:01:22.355Z,95132.72
2022-10-22T22:03:24.828Z,95127.66
2022-10-22T22:05:27.020Z,95130.16
2022-10-22T22:07:28.605Z,95133.91
2022-10-22T22:09:30.168Z,95137.19
2022-10-22T22:11:32.475Z,95143.28
2022-10-22T22:13:34.945Z,95137.69
2022-10-22T22:15:36.550Z,95141.00
2022-10-22T22:17:38.175Z,95143.78
2022-10-22T22:19:39.854Z,95136.19
2022-10-22T22:21:42.161Z,95131.41
2022-10-22T22:23:45.907Z,95134.41
2022-10-22T22:25:47.361Z,95120.38
2022-10-22T22:27:48.965Z,95120.25
2022-10-22T22:29:50.864Z,95116.63
2022-10-22T22:31:52.521Z,95115.97
2022-10-22T22:34:08.396Z,95120.41
2022-10-22T22:36:10.972Z,95120.91
2022-10-22T22:38:12.536Z,95118.78
2022-10-22T22:40:14.151Z,95115.19
2022-10-22T22:42:15.753Z,95116.00
2022-10-22T22:44:17.697Z,95119.28
2022-10-22T22:46:19.270Z,95120.28
2022-10-22T22:48:21.059Z,95122.09
2022-10-22T22:50:22.685Z,95122.06
2022-10-22T22:52:24.313Z,95117.63
2022-10-22T22:54:26.103Z,95122.72
2022-10-22T22:56:29.764Z,95125.19
2022-10-22T22:58:31.453Z,95127.53
2022-10-22T23:00:33.459Z,95124.38
2022-10-22T23:02:35.120Z,95129.50
2022-10-22T23:04:36.764Z,95124.50
2022-10-22T23:06:39.195Z,95127.34
2022-10-22T23:08:41.814Z,95125.34
2022-10-22T23:10:43.524Z,95123.22
2022-10-22T23:12:45.325Z,95123.72
2022-10-22T23:14:50.373Z,95122.56
2022-10-22T23:16:52.816Z,95126.69
2022-10-22T23:18:55.448Z,95125.03
2022-10-22T23:20:57.039Z,95128.16
2022-10-22T23:22:58.609Z,95119.94
2022-10-22T23:25:00.290Z,95130.75
2022-10-22T23:27:03.931Z,95130.28
2022-10-22T23:29:13.517Z,95120.56
2022-10-22T23:31:16.859Z,95130.25
2022-10-22T23:33:19.454Z,95128.81
2022-10-22T23:35:21.164Z,95133.38
2022-10-22T23:37:22.848Z,95142.44
2022-10-22T23:39:27.039Z,95150.34
2022-10-22T23:41:28.604Z,95147.84
2022-10-22T23:43:31.226Z,95143.09
2022-10-22T23:45:36.477Z,95148.34
2022-10-22T23:47:38.136Z,95142.78
2022-10-22T23:49:39.706Z,95151.97
2022-10-22T23:51:41.465Z,95149.69
2022-10-22T23:53:44.433Z,95158.06
2022-10-22T23:55:46.049Z,95144.44
2022-10-22T23:57:47.677Z,95151.66
2022-10-22T23:59:49.644Z,95142.50
